sensor_id;sensor_type;location;lat;lon;timestamp;P1;durP1;ratioP1;P2;durP2;ratioP2
47381;SDS011;33128;51.580;5.170;2022-11-15T00:00:26;35.30;;;32.15;;
47381;SDS011;33128;51.580;5.170;2022-11-15T00:02:52;34.83;;;31.25;;
47381;SDS011;33128;51.580;5.170;2022-11-15T00:05:18;33.83;;;30.48;;
47381;SDS011;33128;51.580;5.170;2022-11-15T00:07:43;34.20;;;31.17;;
47381;SDS011;33128;51.580;5.170;2022-11-15T00:10:09;37.05;;;33.25;;
47381;SDS011;33128;51.580;5.170;2022-11-15T00:12:34;34.65;;;31.13;;
47381;SDS011;33128;51.580;5.170;2022-11-15T00:15:00;35.20;;;31.98;;
47381;SDS011;33128;51.580;5.170;2022-11-15T00:17:25;35.38;;;32.35;;
47381;SDS011;33128;51.580;5.170;2022-11-15T00:19:51;35.10;;;32.05;;
47381;SDS011;33128;51.580;5.170;2022-11-15T00:22:17;35.78;;;32.55;;
47381;SDS011;33128;51.580;5.170;2022-11-15T00:24:42;34.80;;;31.85;;
47381;SDS011;33128;51.580;5.170;2022-11-15T00:27:08;34.70;;;31.52;;
47381;SDS011;33128;51.580;5.170;2022-11-15T00:29:33;33.72;;;30.63;;
47381;SDS011;33128;51.580;5.170;2022-11-15T00:31:59;34.38;;;31.38;;
47381;SDS011;33128;51.580;5.170;2022-11-15T00:34:25;35.00;;;32.03;;
47381;SDS011;33128;51.580;5.170;2022-11-15T00:36:50;36.25;;;32.55;;
47381;SDS011;33128;51.580;5.170;2022-11-15T00:39:16;36.05;;;32.47;;
47381;SDS011;33128;51.580;5.170;2022-11-15T00:41:41;36.28;;;33.17;;
47381;SDS011;33128;51.580;5.170;2022-11-15T00:44:07;34.00;;;31.38;;
47381;SDS011;33128;51.580;5.170;2022-11-15T00:46:33;34.88;;;31.98;;
47381;SDS011;33128;51.580;5.170;2022-11-15T00:48:58;33.22;;;30.42;;
47381;SDS011;33128;51.580;5.170;2022-11-15T00:51:24;34.90;;;31.77;;
47381;SDS011;33128;51.580;5.170;2022-11-15T00:53:49;36.33;;;32.97;;
47381;SDS011;33128;51.580;5.170;2022-11-15T00:56:15;35.05;;;32.00;;
47381;SDS011;33128;51.580;5.170;2022-11-15T00:58:40;34.80;;;31.90;;
47381;SDS011;33128;51.580;5.170;2022-11-15T01:01:10;34.45;;;31.88;;
47381;SDS011;33128;51.580;5.170;2022-11-15T01:03:37;35.45;;;32.78;;
47381;SDS011;33128;51.580;5.170;2022-11-15T01:06:04;33.63;;;31.23;;
47381;SDS011;33128;51.580;5.170;2022-11-15T01:08:34;33.00;;;30.40;;
47381;SDS011;33128;51.580;5.170;2022-11-15T01:11:09;34.58;;;31.95;;
47381;SDS011;33128;51.580;5.170;2022-11-15T01:13:37;34.40;;;31.20;;
47381;SDS011;33128;51.580;5.170;2022-11-15T01:16:07;33.55;;;31.00;;
47381;SDS011;33128;51.580;5.170;2022-11-15T01:18:34;34.28;;;31.67;;
47381;SDS011;33128;51.580;5.170;2022-11-15T01:21:04;35.22;;;32.28;;
47381;SDS011;33128;51.580;5.170;2022-11-15T01:23:30;37.08;;;31.98;;
47381;SDS011;33128;51.580;5.170;2022-11-15T01:25:59;34.03;;;31.75;;
47381;SDS011;33128;51.580;5.170;2022-11-15T01:28:29;33.85;;;31.42;;
47381;SDS011;33128;51.580;5.170;2022-11-15T01:30:59;35.13;;;32.50;;
47381;SDS011;33128;51.580;5.170;2022-11-15T01:33:25;36.53;;;32.95;;
47381;SDS011;33128;51.580;5.170;2022-11-15T01:35:51;33.97;;;30.92;;
47381;SDS011;33128;51.580;5.170;2022-11-15T01:38:17;34.53;;;32.00;;
47381;SDS011;33128;51.580;5.170;2022-11-15T01:40:42;33.22;;;30.70;;
47381;SDS011;33128;51.580;5.170;2022-11-15T01:46:00;35.90;;;33.38;;
47381;SDS011;33128;51.580;5.170;2022-11-15T01:48:36;36.13;;;33.03;;
47381;SDS011;33128;51.580;5.170;2022-11-15T01:51:02;37.47;;;34.20;;
47381;SDS011;33128;51.580;5.170;2022-11-15T01:53:32;36.45;;;33.40;;
47381;SDS011;33128;51.580;5.170;2022-11-15T01:55:59;35.75;;;33.22;;
47381;SDS011;33128;51.580;5.170;2022-11-15T01:58:31;36.30;;;33.78;;
47381;SDS011;33128;51.580;5.170;2022-11-15T02:00:58;37.20;;;34.40;;
47381;SDS011;33128;51.580;5.170;2022-11-15T02:03:25;35.20;;;32.80;;
47381;SDS011;33128;51.580;5.170;2022-11-15T02:05:57;37.45;;;34.53;;
47381;SDS011;33128;51.580;5.170;2022-11-15T02:08:24;36.50;;;33.33;;
47381;SDS011;33128;51.580;5.170;2022-11-15T02:10:49;36.40;;;33.75;;
47381;SDS011;33128;51.580;5.170;2022-11-15T02:13:15;37.92;;;34.65;;
47381;SDS011;33128;51.580;5.170;2022-11-15T02:15:55;35.20;;;32.47;;
47381;SDS011;33128;51.580;5.170;2022-11-15T02:18:47;35.25;;;32.85;;
47381;SDS011;33128;51.580;5.170;2022-11-15T02:21:19;36.95;;;34.03;;
47381;SDS011;33128;51.580;5.170;2022-11-15T02:23:56;36.15;;;33.55;;
47381;SDS011;33128;51.580;5.170;2022-11-15T02:32:45;34.50;;;32.05;;
47381;SDS011;33128;51.580;5.170;2022-11-15T02:35:37;36.05;;;33.42;;
47381;SDS011;33128;51.580;5.170;2022-11-15T02:40:59;36.10;;;33.08;;
47381;SDS011;33128;51.580;5.170;2022-11-15T02:43:31;35.00;;;32.42;;
47381;SDS011;33128;51.580;5.170;2022-11-15T02:49:16;33.35;;;30.80;;
47381;SDS011;33128;51.580;5.170;2022-11-15T02:51:42;35.92;;;33.28;;
47381;SDS011;33128;51.580;5.170;2022-11-15T02:54:11;35.03;;;32.33;;
47381;SDS011;33128;51.580;5.170;2022-11-15T02:56:43;34.38;;;32.05;;
47381;SDS011;33128;51.580;5.170;2022-11-15T03:04:44;35.22;;;32.67;;
47381;SDS011;33128;51.580;5.170;2022-11-15T03:08:06;35.10;;;32.47;;
47381;SDS011;33128;51.580;5.170;2022-11-15T03:10:36;36.63;;;33.60;;
47381;SDS011;33128;51.580;5.170;2022-11-15T03:13:30;48.42;;;45.30;;
47381;SDS011;33128;51.580;5.170;2022-11-15T03:16:46;44.65;;;41.83;;
47381;SDS011;33128;51.580;5.170;2022-11-15T03:18:54;45.38;;;42.35;;
47381;SDS011;33128;51.580;5.170;2022-11-15T03:21:27;45.80;;;42.90;;
47381;SDS011;33128;51.580;5.170;2022-11-15T03:23:55;46.20;;;43.00;;
47381;SDS011;33128;51.580;5.170;2022-11-15T03:26:26;45.72;;;42.63;;
47381;SDS011;33128;51.580;5.170;2022-11-15T03:29:13;47.00;;;43.80;;
47381;SDS011;33128;51.580;5.170;2022-11-15T03:31:51;46.20;;;43.08;;
47381;SDS011;33128;51.580;5.170;2022-11-15T03:34:28;46.55;;;43.13;;
47381;SDS011;33128;51.580;5.170;2022-11-15T03:37:06;45.20;;;42.20;;
47381;SDS011;33128;51.580;5.170;2022-11-15T03:39:33;44.40;;;41.40;;
47381;SDS011;33128;51.580;5.170;2022-11-15T03:42:04;44.80;;;41.58;;
47381;SDS011;33128;51.580;5.170;2022-11-15T03:45:19;46.10;;;42.28;;
47381;SDS011;33128;51.580;5.170;2022-11-15T03:47:34;44.05;;;41.08;;
47381;SDS011;33128;51.580;5.170;2022-11-15T03:50:09;44.80;;;41.65;;
47381;SDS011;33128;51.580;5.170;2022-11-15T03:52:37;43.78;;;40.42;;
47381;SDS011;33128;51.580;5.170;2022-11-15T03:55:06;44.28;;;41.25;;
47381;SDS011;33128;51.580;5.170;2022-11-15T03:57:36;44.30;;;41.20;;
47381;SDS011;33128;51.580;5.170;2022-11-15T04:00:03;45.50;;;42.42;;
47381;SDS011;33128;51.580;5.170;2022-11-15T04:02:29;42.63;;;39.92;;
47381;SDS011;33128;51.580;5.170;2022-11-15T04:04:55;44.05;;;41.20;;
47381;SDS011;33128;51.580;5.170;2022-11-15T04:07:21;46.20;;;43.10;;
47381;SDS011;33128;51.580;5.170;2022-11-15T04:09:49;45.80;;;42.47;;
47381;SDS011;33128;51.580;5.170;2022-11-15T04:12:27;45.25;;;41.80;;
47381;SDS011;33128;51.580;5.170;2022-11-15T04:17:45;44.35;;;41.35;;
47381;SDS011;33128;51.580;5.170;2022-11-15T04:20:19;45.80;;;42.00;;
47381;SDS011;33128;51.580;5.170;2022-11-15T04:23:11;45.00;;;41.45;;
47381;SDS011;33128;51.580;5.170;2022-11-15T04:26:07;43.95;;;41.00;;
47381;SDS011;33128;51.580;5.170;2022-11-15T04:28:39;44.50;;;41.15;;
47381;SDS011;33128;51.580;5.170;2022-11-15T04:31:26;45.20;;;41.97;;
47381;SDS011;33128;51.580;5.170;2022-11-15T04:33:52;44.13;;;41.08;;
47381;SDS011;33128;51.580;5.170;2022-11-15T04:36:18;47.08;;;43.22;;
47381;SDS011;33128;51.580;5.170;2022-11-15T04:39:04;46.65;;;43.17;;
47381;SDS011;33128;51.580;5.170;2022-11-15T04:41:30;44.60;;;41.42;;
47381;SDS011;33128;51.580;5.170;2022-11-15T04:43:59;46.47;;;42.63;;
47381;SDS011;33128;51.580;5.170;2022-11-15T04:46:25;43.83;;;40.75;;
47381;SDS011;33128;51.580;5.170;2022-11-15T04:48:51;45.70;;;42.15;;
47381;SDS011;33128;51.580;5.170;2022-11-15T04:51:17;46.53;;;43.25;;
47381;SDS011;33128;51.580;5.170;2022-11-15T04:53:43;38.17;;;35.03;;
47381;SDS011;33128;51.580;5.170;2022-11-15T04:56:30;37.70;;;35.28;;
47381;SDS011;33128;51.580;5.170;2022-11-15T04:58:55;37.25;;;34.90;;
47381;SDS011;33128;51.580;5.170;2022-11-15T05:01:20;36.92;;;34.20;;
47381;SDS011;33128;51.580;5.170;2022-11-15T05:03:46;36.60;;;34.15;;
47381;SDS011;33128;51.580;5.170;2022-11-15T05:06:30;33.47;;;31.48;;
47381;SDS011;33128;51.580;5.170;2022-11-15T05:08:56;31.23;;;29.23;;
47381;SDS011;33128;51.580;5.170;2022-11-15T05:11:22;32.17;;;30.15;;
47381;SDS011;33128;51.580;5.170;2022-11-15T05:13:48;33.00;;;31.27;;
47381;SDS011;33128;51.580;5.170;2022-11-15T05:16:16;31.58;;;29.65;;
47381;SDS011;33128;51.580;5.170;2022-11-15T05:18:42;31.63;;;30.05;;
47381;SDS011;33128;51.580;5.170;2022-11-15T05:21:08;31.02;;;29.33;;
47381;SDS011;33128;51.580;5.170;2022-11-15T05:23:36;30.48;;;28.58;;
47381;SDS011;33128;51.580;5.170;2022-11-15T05:26:03;28.42;;;26.92;;
47381;SDS011;33128;51.580;5.170;2022-11-15T05:28:32;29.50;;;27.38;;
47381;SDS011;33128;51.580;5.170;2022-11-15T05:33:51;30.80;;;28.88;;
47381;SDS011;33128;51.580;5.170;2022-11-15T05:38:49;27.98;;;26.48;;
47381;SDS011;33128;51.580;5.170;2022-11-15T05:41:16;28.85;;;27.05;;
47381;SDS011;33128;51.580;5.170;2022-11-15T05:43:44;29.73;;;28.23;;
47381;SDS011;33128;51.580;5.170;2022-11-15T05:46:10;29.50;;;27.42;;
47381;SDS011;33128;51.580;5.170;2022-11-15T05:48:40;28.95;;;27.17;;
47381;SDS011;33128;51.580;5.170;2022-11-15T05:51:10;29.50;;;27.98;;
47381;SDS011;33128;51.580;5.170;2022-11-15T05:53:42;27.58;;;25.98;;
47381;SDS011;33128;51.580;5.170;2022-11-15T05:56:17;25.58;;;24.17;;
47381;SDS011;33128;51.580;5.170;2022-11-15T05:58:42;26.50;;;25.30;;
47381;SDS011;33128;51.580;5.170;2022-11-15T06:01:08;27.42;;;25.95;;
47381;SDS011;33128;51.580;5.170;2022-11-15T06:03:43;27.83;;;26.08;;
47381;SDS011;33128;51.580;5.170;2022-11-15T06:06:22;26.83;;;25.42;;
47381;SDS011;33128;51.580;5.170;2022-11-15T06:08:50;24.88;;;23.60;;
47381;SDS011;33128;51.580;5.170;2022-11-15T06:11:16;26.15;;;24.45;;
47381;SDS011;33128;51.580;5.170;2022-11-15T06:13:42;26.35;;;24.90;;
47381;SDS011;33128;51.580;5.170;2022-11-15T06:16:07;25.80;;;24.35;;
47381;SDS011;33128;51.580;5.170;2022-11-15T06:18:33;25.35;;;23.85;;
47381;SDS011;33128;51.580;5.170;2022-11-15T06:21:02;26.05;;;24.60;;
47381;SDS011;33128;51.580;5.170;2022-11-15T06:23:32;26.67;;;25.13;;
47381;SDS011;33128;51.580;5.170;2022-11-15T06:26:04;25.52;;;24.17;;
47381;SDS011;33128;51.580;5.170;2022-11-15T06:28:30;26.42;;;24.77;;
47381;SDS011;33128;51.580;5.170;2022-11-15T06:31:03;27.20;;;25.83;;
47381;SDS011;33128;51.580;5.170;2022-11-15T06:33:30;26.58;;;25.27;;
47381;SDS011;33128;51.580;5.170;2022-11-15T06:35:59;26.95;;;25.30;;
47381;SDS011;33128;51.580;5.170;2022-11-15T06:38:29;25.80;;;23.98;;
47381;SDS011;33128;51.580;5.170;2022-11-15T06:40:54;23.90;;;22.40;;
47381;SDS011;33128;51.580;5.170;2022-11-15T06:43:25;25.88;;;24.45;;
47381;SDS011;33128;51.580;5.170;2022-11-15T06:45:51;23.42;;;22.27;;
47381;SDS011;33128;51.580;5.170;2022-11-15T06:48:19;26.52;;;24.73;;
47381;SDS011;33128;51.580;5.170;2022-11-15T06:50:54;26.02;;;24.63;;
47381;SDS011;33128;51.580;5.170;2022-11-15T06:53:22;25.05;;;23.65;;
47381;SDS011;33128;51.580;5.170;2022-11-15T06:55:48;26.40;;;24.80;;
47381;SDS011;33128;51.580;5.170;2022-11-15T06:58:14;25.80;;;24.30;;
47381;SDS011;33128;51.580;5.170;2022-11-15T07:00:40;24.85;;;23.48;;
47381;SDS011;33128;51.580;5.170;2022-11-15T07:03:06;24.60;;;23.20;;
47381;SDS011;33128;51.580;5.170;2022-11-15T07:05:32;24.60;;;23.30;;
47381;SDS011;33128;51.580;5.170;2022-11-15T07:07:58;24.48;;;23.10;;
47381;SDS011;33128;51.580;5.170;2022-11-15T07:10:24;22.25;;;21.15;;
47381;SDS011;33128;51.580;5.170;2022-11-15T07:12:51;23.77;;;22.50;;
47381;SDS011;33128;51.580;5.170;2022-11-15T07:15:17;22.75;;;21.55;;
47381;SDS011;33128;51.580;5.170;2022-11-15T07:17:45;22.02;;;20.83;;
47381;SDS011;33128;51.580;5.170;2022-11-15T07:20:11;20.90;;;19.75;;
47381;SDS011;33128;51.580;5.170;2022-11-15T07:22:38;24.00;;;22.55;;
47381;SDS011;33128;51.580;5.170;2022-11-15T07:25:04;22.27;;;20.88;;
47381;SDS011;33128;51.580;5.170;2022-11-15T07:27:53;21.88;;;20.58;;
47381;SDS011;33128;51.580;5.170;2022-11-15T07:30:20;31.67;;;29.92;;
47381;SDS011;33128;51.580;5.170;2022-11-15T07:32:45;30.98;;;28.75;;
47381;SDS011;33128;51.580;5.170;2022-11-15T07:35:11;29.33;;;27.83;;
47381;SDS011;33128;51.580;5.170;2022-11-15T07:37:37;29.50;;;27.70;;
47381;SDS011;33128;51.580;5.170;2022-11-15T07:40:02;28.77;;;27.27;;
47381;SDS011;33128;51.580;5.170;2022-11-15T07:42:30;30.88;;;29.05;;
47381;SDS011;33128;51.580;5.170;2022-11-15T07:47:46;29.90;;;28.40;;
47381;SDS011;33128;51.580;5.170;2022-11-15T07:50:19;31.48;;;28.67;;
47381;SDS011;33128;51.580;5.170;2022-11-15T07:52:45;30.50;;;28.48;;
47381;SDS011;33128;51.580;5.170;2022-11-15T07:55:11;29.63;;;28.08;;
47381;SDS011;33128;51.580;5.170;2022-11-15T07:57:36;30.33;;;28.63;;
47381;SDS011;33128;51.580;5.170;2022-11-15T08:00:03;28.45;;;26.88;;
47381;SDS011;33128;51.580;5.170;2022-11-15T08:02:30;28.92;;;27.50;;
47381;SDS011;33128;51.580;5.170;2022-11-15T08:04:58;30.25;;;28.65;;
47381;SDS011;33128;51.580;5.170;2022-11-15T08:07:24;30.02;;;28.45;;
47381;SDS011;33128;51.580;5.170;2022-11-15T08:09:50;29.67;;;28.20;;
47381;SDS011;33128;51.580;5.170;2022-11-15T08:12:15;30.52;;;28.83;;
47381;SDS011;33128;51.580;5.170;2022-11-15T08:14:41;30.98;;;29.42;;
47381;SDS011;33128;51.580;5.170;2022-11-15T08:17:06;31.30;;;29.80;;
47381;SDS011;33128;51.580;5.170;2022-11-15T08:19:32;32.08;;;30.17;;
47381;SDS011;33128;51.580;5.170;2022-11-15T08:22:00;31.00;;;29.25;;
47381;SDS011;33128;51.580;5.170;2022-11-15T08:24:25;30.08;;;28.27;;
47381;SDS011;33128;51.580;5.170;2022-11-15T08:26:51;29.75;;;28.17;;
47381;SDS011;33128;51.580;5.170;2022-11-15T08:29:17;30.15;;;28.23;;
47381;SDS011;33128;51.580;5.170;2022-11-15T08:31:42;30.25;;;28.73;;
47381;SDS011;33128;51.580;5.170;2022-11-15T08:34:11;30.13;;;28.42;;
47381;SDS011;33128;51.580;5.170;2022-11-15T08:36:36;30.20;;;28.60;;
47381;SDS011;33128;51.580;5.170;2022-11-15T08:39:02;30.75;;;29.15;;
47381;SDS011;33128;51.580;5.170;2022-11-15T08:41:29;30.25;;;28.75;;
47381;SDS011;33128;51.580;5.170;2022-11-15T08:44:00;29.88;;;28.27;;
47381;SDS011;33128;51.580;5.170;2022-11-15T08:46:26;29.83;;;28.27;;
47381;SDS011;33128;51.580;5.170;2022-11-15T08:48:51;28.13;;;26.63;;
47381;SDS011;33128;51.580;5.170;2022-11-15T08:51:17;29.10;;;27.70;;
47381;SDS011;33128;51.580;5.170;2022-11-15T08:53:43;30.90;;;29.00;;
47381;SDS011;33128;51.580;5.170;2022-11-15T08:56:09;30.52;;;29.02;;
47381;SDS011;33128;51.580;5.170;2022-11-15T08:58:36;30.52;;;29.02;;
47381;SDS011;33128;51.580;5.170;2022-11-15T09:01:02;30.02;;;28.52;;
47381;SDS011;33128;51.580;5.170;2022-11-15T09:03:28;30.35;;;28.88;;
47381;SDS011;33128;51.580;5.170;2022-11-15T09:05:57;31.73;;;30.02;;
47381;SDS011;33128;51.580;5.170;2022-11-15T09:08:24;31.40;;;29.90;;
47381;SDS011;33128;51.580;5.170;2022-11-15T09:10:53;30.52;;;29.02;;
47381;SDS011;33128;51.580;5.170;2022-11-15T09:13:19;30.85;;;29.17;;
47381;SDS011;33128;51.580;5.170;2022-11-15T09:15:45;30.23;;;28.63;;
47381;SDS011;33128;51.580;5.170;2022-11-15T09:18:10;28.85;;;27.45;;
47381;SDS011;33128;51.580;5.170;2022-11-15T09:20:39;29.83;;;28.33;;
47381;SDS011;33128;51.580;5.170;2022-11-15T09:23:05;29.58;;;28.15;;
47381;SDS011;33128;51.580;5.170;2022-11-15T09:25:31;29.73;;;28.23;;
47381;SDS011;33128;51.580;5.170;2022-11-15T09:27:57;29.48;;;28.08;;
47381;SDS011;33128;51.580;5.170;2022-11-15T09:30:23;29.88;;;28.33;;
47381;SDS011;33128;51.580;5.170;2022-11-15T09:32:49;30.88;;;29.17;;
47381;SDS011;33128;51.580;5.170;2022-11-15T09:35:15;28.83;;;27.42;;
47381;SDS011;33128;51.580;5.170;2022-11-15T09:37:41;28.35;;;26.95;;
47381;SDS011;33128;51.580;5.170;2022-11-15T09:40:11;25.60;;;24.40;;
47381;SDS011;33128;51.580;5.170;2022-11-15T09:50:53;28.75;;;26.90;;
47381;SDS011;33128;51.580;5.170;2022-11-15T09:53:26;28.60;;;27.17;;
47381;SDS011;33128;51.580;5.170;2022-11-15T09:56:01;27.85;;;26.50;;
47381;SDS011;33128;51.580;5.170;2022-11-15T10:01:02;26.77;;;25.48;;
47381;SDS011;33128;51.580;5.170;2022-11-15T10:03:36;25.55;;;24.40;;
47381;SDS011;33128;51.580;5.170;2022-11-15T10:06:08;26.20;;;24.90;;
47381;SDS011;33128;51.580;5.170;2022-11-15T10:11:23;27.27;;;25.88;;
47381;SDS011;33128;51.580;5.170;2022-11-15T10:13:54;27.77;;;26.58;;
47381;SDS011;33128;51.580;5.170;2022-11-15T10:16:29;25.80;;;24.60;;
47381;SDS011;33128;51.580;5.170;2022-11-15T10:19:26;25.95;;;24.75;;
47381;SDS011;33128;51.580;5.170;2022-11-15T10:27:38;27.30;;;26.00;;
47381;SDS011;33128;51.580;5.170;2022-11-15T10:30:13;28.77;;;26.67;;
47381;SDS011;33128;51.580;5.170;2022-11-15T10:32:41;26.25;;;24.92;;
47381;SDS011;33128;51.580;5.170;2022-11-15T10:35:25;25.85;;;24.75;;
47381;SDS011;33128;51.580;5.170;2022-11-15T10:37:52;26.33;;;25.13;;
47381;SDS011;33128;51.580;5.170;2022-11-15T10:40:37;26.55;;;25.13;;
47381;SDS011;33128;51.580;5.170;2022-11-15T10:43:05;27.10;;;25.90;;
47381;SDS011;33128;51.580;5.170;2022-11-15T10:45:34;27.58;;;26.38;;
47381;SDS011;33128;51.580;5.170;2022-11-15T10:50:55;26.27;;;25.05;;
47381;SDS011;33128;51.580;5.170;2022-11-15T10:55:49;26.65;;;25.45;;
47381;SDS011;33128;51.580;5.170;2022-11-15T10:58:21;28.35;;;26.95;;
47381;SDS011;33128;51.580;5.170;2022-11-15T11:03:41;27.83;;;26.52;;
47381;SDS011;33128;51.580;5.170;2022-11-15T11:06:26;26.73;;;25.48;;
47381;SDS011;33128;51.580;5.170;2022-11-15T11:11:25;25.75;;;24.45;;
47381;SDS011;33128;51.580;5.170;2022-11-15T11:14:11;25.98;;;24.67;;
47381;SDS011;33128;51.580;5.170;2022-11-15T11:16:42;25.63;;;24.45;;
47381;SDS011;33128;51.580;5.170;2022-11-15T11:19:18;26.60;;;25.15;;
47381;SDS011;33128;51.580;5.170;2022-11-15T11:22:05;26.90;;;25.60;;
47381;SDS011;33128;51.580;5.170;2022-11-15T11:25:03;27.85;;;26.55;;
47381;SDS011;33128;51.580;5.170;2022-11-15T11:33:44;28.65;;;27.35;;
47381;SDS011;33128;51.580;5.170;2022-11-15T11:41:53;29.27;;;27.88;;
47381;SDS011;33128;51.580;5.170;2022-11-15T11:46:45;27.60;;;26.30;;
47381;SDS011;33128;51.580;5.170;2022-11-15T11:49:31;28.92;;;27.05;;
47381;SDS011;33128;51.580;5.170;2022-11-15T11:52:13;28.17;;;26.75;;
47381;SDS011;33128;51.580;5.170;2022-11-15T11:54:53;27.17;;;25.77;;
47381;SDS011;33128;51.580;5.170;2022-11-15T11:57:38;28.05;;;26.40;;
47381;SDS011;33128;51.580;5.170;2022-11-15T12:00:16;26.73;;;25.50;;
47381;SDS011;33128;51.580;5.170;2022-11-15T12:03:02;27.13;;;25.83;;
